createdAt,value
2023-04-18T00:02:09.057Z,18.35
2023-04-18T00:04:36.797Z,16.20
2023-04-18T00:07:04.440Z,15.77
2023-04-18T00:09:31.947Z,15.30
2023-04-18T00:11:59.477Z,19.92
2023-04-18T00:14:30.098Z,21.65
2023-04-18T00:16:57.637Z,20.13
2023-04-18T00:19:25.163Z,19.55
2023-04-18T00:21:53.431Z,19.33
2023-04-18T00:24:21.075Z,18.50
2023-04-18T00:26:51.685Z,18.92
2023-04-18T00:29:19.170Z,19.10
2023-04-18T00:31:47.976Z,18.42
2023-04-18T00:34:15.611Z,17.90
2023-04-18T00:36:43.193Z,18.23
2023-04-18T00:39:10.715Z,16.85
2023-04-18T00:41:38.216Z,19.52
2023-04-18T00:44:06.129Z,21.33
2023-04-18T00:46:33.807Z,18.58
2023-04-18T00:49:03.184Z,21.52
2023-04-18T00:51:30.668Z,19.60
2023-04-18T00:53:58.406Z,20.15
2023-04-18T00:56:25.945Z,16.73
2023-04-18T00:58:53.487Z,23.48
2023-04-18T01:01:21.343Z,18.90
2023-04-18T01:03:48.984Z,17.65
2023-04-18T01:06:18.013Z,22.20
2023-04-18T01:08:45.872Z,20.80
2023-04-18T01:11:13.358Z,15.73
2023-04-18T01:13:40.862Z,19.02
2023-04-18T01:16:08.626Z,20.25
2023-04-18T01:18:37.094Z,21.85
2023-04-18T01:21:06.205Z,23.05
2023-04-18T01:23:35.094Z,19.60
2023-04-18T01:26:03.911Z,20.63
2023-04-18T01:28:31.402Z,23.83
2023-04-18T01:30:58.947Z,22.63
2023-04-18T01:33:26.454Z,22.30
2023-04-18T01:35:53.977Z,23.40
2023-04-18T01:38:21.448Z,22.42
2023-04-18T01:40:48.936Z,22.05
2023-04-18T01:43:17.751Z,28.65
2023-04-18T01:45:45.245Z,24.48
2023-04-18T01:48:12.730Z,21.17
2023-04-18T01:50:40.352Z,22.77
2023-04-18T01:53:07.842Z,25.05
2023-04-18T01:55:36.464Z,24.50
2023-04-18T01:58:03.972Z,22.38
2023-04-18T02:00:32.831Z,20.80
2023-04-18T02:03:00.584Z,17.27
2023-04-18T02:05:28.321Z,21.92
2023-04-18T02:07:55.992Z,26.00
2023-04-18T02:10:23.708Z,23.52
2023-04-18T02:12:51.232Z,26.90
2023-04-18T02:15:19.007Z,23.75
2023-04-18T02:17:49.051Z,23.35
2023-04-18T02:20:16.598Z,25.48
2023-04-18T02:22:44.425Z,26.60
2023-04-18T02:25:11.987Z,25.75
2023-04-18T02:27:39.475Z,24.90
2023-04-18T02:30:08.225Z,27.75
2023-04-18T02:32:35.915Z,26.42
2023-04-18T02:35:05.347Z,26.13
2023-04-18T02:37:32.837Z,22.23
2023-04-18T02:40:00.391Z,23.00
2023-04-18T02:42:27.908Z,28.58
2023-04-18T02:44:55.477Z,29.85
2023-04-18T02:47:22.942Z,24.08
2023-04-18T02:49:50.859Z,26.45
2023-04-18T02:52:19.663Z,23.92
2023-04-18T02:54:47.159Z,24.67
2023-04-18T02:57:14.651Z,25.05
2023-04-18T02:59:42.142Z,25.00
2023-04-18T03:02:09.715Z,24.90
2023-04-18T03:04:37.243Z,29.20
2023-04-18T03:07:04.759Z,26.38
2023-04-18T03:09:33.565Z,23.55
2023-04-18T03:12:02.113Z,23.17
2023-04-18T03:14:29.654Z,24.63
2023-04-18T03:16:57.227Z,23.23
2023-04-18T03:19:24.741Z,25.92
2023-04-18T03:21:54.305Z,26.95
2023-04-18T03:24:21.824Z,25.88
2023-04-18T03:26:50.715Z,23.15
2023-04-18T03:29:18.201Z,24.65
2023-04-18T03:31:45.907Z,23.20
2023-04-18T03:34:13.761Z,23.48
2023-04-18T03:36:41.396Z,25.27
2023-04-18T03:39:08.916Z,20.20
2023-04-18T03:41:36.406Z,21.70
2023-04-18T03:44:05.582Z,22.98
2023-04-18T03:46:33.104Z,24.98
2023-04-18T03:49:00.844Z,24.48
2023-04-18T03:51:28.430Z,23.80
2023-04-18T03:53:55.913Z,21.70
2023-04-18T03:56:23.441Z,23.05
2023-04-18T03:58:50.956Z,21.73
2023-04-18T04:01:19.790Z,22.23
2023-04-18T04:03:47.502Z,22.90
2023-04-18T04:06:15.569Z,25.17
2023-04-18T04:08:43.071Z,23.25
2023-04-18T04:11:10.573Z,22.63
2023-04-18T04:13:38.063Z,23.33
2023-04-18T04:16:06.594Z,21.40
2023-04-18T04:18:35.470Z,20.83
2023-04-18T04:21:04.102Z,20.05
2023-04-18T04:23:31.602Z,23.17
2023-04-18T04:25:59.258Z,22.80
2023-04-18T04:28:26.778Z,19.77
2023-04-18T04:30:55.480Z,21.83
2023-04-18T04:33:25.111Z,21.95
2023-04-18T04:35:54.273Z,22.88
2023-04-18T04:38:22.994Z,21.27
2023-04-18T04:40:50.959Z,23.55
2023-04-18T04:43:20.576Z,21.80
2023-04-18T04:45:49.556Z,22.42
2023-04-18T04:48:18.758Z,24.60
2023-04-18T04:50:54.271Z,19.15
2023-04-18T04:53:21.962Z,19.95
2023-04-18T04:55:49.756Z,18.83
2023-04-18T04:58:17.264Z,22.15
2023-04-18T05:00:44.738Z,23.23
2023-04-18T05:03:12.366Z,19.10
2023-04-18T05:05:40.234Z,19.90
2023-04-18T05:08:09.100Z,19.17
2023-04-18T05:10:37.412Z,20.45
2023-04-18T05:13:05.139Z,18.00
2023-04-18T05:15:32.704Z,20.85
2023-04-18T05:18:00.360Z,18.75
2023-04-18T05:20:27.848Z,20.33
2023-04-18T05:22:55.365Z,18.25
2023-04-18T05:25:24.158Z,21.55
2023-04-18T05:27:52.027Z,20.05
2023-04-18T05:30:19.729Z,17.88
2023-04-18T05:32:47.262Z,17.10
2023-04-18T05:35:14.810Z,17.17
2023-04-18T05:37:42.325Z,19.08
2023-04-18T05:40:10.799Z,18.67
2023-04-18T05:42:39.626Z,15.23
2023-04-18T05:45:08.085Z,21.15
2023-04-18T05:47:35.650Z,17.45
2023-04-18T05:50:03.288Z,18.30
2023-04-18T05:52:31.247Z,18.45
2023-04-18T05:54:58.746Z,15.63
2023-04-18T05:57:26.323Z,18.60
2023-04-18T05:59:55.116Z,15.52
2023-04-18T06:02:22.836Z,16.20
2023-04-18T06:04:51.525Z,18.25
2023-04-18T06:07:19.208Z,20.13
2023-04-18T06:09:46.677Z,18.48
2023-04-18T06:12:14.170Z,19.52
2023-04-18T06:14:41.654Z,17.95
2023-04-18T06:17:12.536Z,16.73
2023-04-18T06:19:40.223Z,17.88
2023-04-18T06:22:08.071Z,24.83
2023-04-18T06:24:35.648Z,15.88
2023-04-18T06:27:03.201Z,18.40
2023-04-18T06:29:33.103Z,21.38
2023-04-18T06:32:00.739Z,22.65
2023-04-18T06:34:29.576Z,22.20
2023-04-18T06:36:57.059Z,19.35
2023-04-18T06:39:24.681Z,16.95
2023-04-18T06:41:52.197Z,17.85
2023-04-18T06:44:19.676Z,18.80
2023-04-18T06:46:47.257Z,17.50
2023-04-18T06:49:14.746Z,17.27
2023-04-18T06:51:43.556Z,16.38
2023-04-18T06:54:11.381Z,17.35
2023-04-18T06:56:38.921Z,22.73
2023-04-18T06:59:06.416Z,23.75
2023-04-18T07:01:34.141Z,15.85
2023-04-18T07:04:04.602Z,15.60
2023-04-18T07:06:32.278Z,19.02
2023-04-18T07:09:01.565Z,16.33
2023-04-18T07:11:29.373Z,20.33
2023-04-18T07:13:56.877Z,26.00
2023-04-18T07:16:24.420Z,40.30
2023-04-18T07:18:52.551Z,16.92
2023-04-18T07:21:20.223Z,19.40
2023-04-18T07:23:47.720Z,17.02
2023-04-18T07:26:16.570Z,19.00
2023-04-18T07:28:44.047Z,18.27
2023-04-18T07:31:14.407Z,22.02
2023-04-18T07:33:43.262Z,17.00
2023-04-18T07:36:10.894Z,22.23
2023-04-18T07:38:38.399Z,14.98
2023-04-18T07:41:05.941Z,13.73
2023-04-18T07:43:34.783Z,16.52
2023-04-18T07:46:02.467Z,16.25
2023-04-18T07:48:29.982Z,19.83
2023-04-18T07:50:57.577Z,20.50
2023-04-18T07:53:25.101Z,24.85
2023-04-18T07:55:54.381Z,36.40
2023-04-18T07:58:22.023Z,19.67
2023-04-18T08:00:50.862Z,14.73
2023-04-18T08:03:18.522Z,16.00
2023-04-18T08:05:46.212Z,16.17
2023-04-18T08:08:13.827Z,15.80
2023-04-18T08:10:41.376Z,14.82
2023-04-18T08:13:09.485Z,19.70
2023-04-18T08:15:37.079Z,14.27
2023-04-18T08:18:06.157Z,15.75
2023-04-18T08:20:34.325Z,14.85
2023-04-18T08:23:08.617Z,14.52
2023-04-18T08:25:37.191Z,11.02
2023-04-18T08:28:04.837Z,15.95
2023-04-18T08:30:32.520Z,18.40
2023-04-18T08:33:00.320Z,12.10
2023-04-18T08:35:29.296Z,18.92
2023-04-18T08:37:56.805Z,17.02
2023-04-18T08:40:24.484Z,21.60
2023-04-18T08:42:53.808Z,20.73
2023-04-18T08:45:21.451Z,12.00
2023-04-18T08:47:49.055Z,13.68
2023-04-18T08:50:18.423Z,10.27
2023-04-18T08:52:48.747Z,12.73
2023-04-18T08:55:16.818Z,11.95
2023-04-18T08:57:44.876Z,10.43
2023-04-18T09:00:13.652Z,14.57
2023-04-18T09:02:43.605Z,9.80
2023-04-18T09:05:12.940Z,9.35
2023-04-18T09:07:40.592Z,9.77
2023-04-18T09:10:10.975Z,9.55
2023-04-18T09:12:44.617Z,10.07
2023-04-18T09:15:14.086Z,8.60
2023-04-18T09:17:43.569Z,10.73
2023-04-18T09:20:12.007Z,10.13
2023-04-18T09:22:47.758Z,10.63
2023-04-18T09:25:27.366Z,10.52
2023-04-18T09:27:55.076Z,8.95
2023-04-18T09:30:39.254Z,7.53
2023-04-18T09:33:09.493Z,9.73
2023-04-18T09:35:37.698Z,7.95
2023-04-18T09:38:05.556Z,7.18
2023-04-18T09:40:34.630Z,7.07
2023-04-18T09:43:02.262Z,9.05
2023-04-18T09:45:29.779Z,7.68
2023-04-18T09:47:57.291Z,7.53
2023-04-18T09:50:24.790Z,14.75
2023-04-18T09:52:52.252Z,8.13
2023-04-18T09:55:20.447Z,8.70
2023-04-18T09:57:49.937Z,17.85
2023-04-18T10:00:24.095Z,11.00
2023-04-18T10:02:55.110Z,8.68
2023-04-18T10:05:26.266Z,8.50
2023-04-18T10:07:54.865Z,8.40
2023-04-18T10:10:22.560Z,10.30
2023-04-18T10:12:53.718Z,10.48
2023-04-18T10:15:22.520Z,10.35
2023-04-18T10:18:04.476Z,19.00
2023-04-18T10:23:01.294Z,8.57
2023-04-18T10:25:51.526Z,9.98
2023-04-18T10:28:21.402Z,12.70
2023-04-18T10:30:56.840Z,9.85
2023-04-18T10:33:32.162Z,8.90
2023-04-18T10:36:02.204Z,15.50
2023-04-18T10:38:30.058Z,9.95
2023-04-18T10:41:17.548Z,14.70
2023-04-18T10:44:19.420Z,10.77
2023-04-18T10:47:33.096Z,8.27
2023-04-18T10:50:06.192Z,8.55
2023-04-18T10:52:34.205Z,10.73
2023-04-18T10:55:18.695Z,10.98
2023-04-18T10:57:47.437Z,12.80
2023-04-18T11:00:18.052Z,7.82
2023-04-18T11:02:53.738Z,12.38
2023-04-18T11:05:23.606Z,12.15
2023-04-18T11:07:51.665Z,11.27
2023-04-18T11:10:20.761Z,11.75
2023-04-18T11:12:48.646Z,9.35
2023-04-18T11:15:21.613Z,10.13
2023-04-18T11:17:57.466Z,11.60
2023-04-18T11:20:25.117Z,12.02
2023-04-18T11:22:54.041Z,10.95
2023-04-18T11:25:25.098Z,6.82
2023-04-18T11:27:52.645Z,10.57
2023-04-18T11:30:21.660Z,14.13
2023-04-18T11:32:49.183Z,16.05
2023-04-18T11:35:17.373Z,10.85
2023-04-18T11:37:45.876Z,10.65
2023-04-18T11:40:14.396Z,9.30
2023-04-18T11:42:42.518Z,12.18
2023-04-18T11:45:11.777Z,9.52
2023-04-18T11:47:41.936Z,12.52
2023-04-18T11:50:11.352Z,16.58
2023-04-18T11:52:40.865Z,7.32
2023-04-18T11:55:13.957Z,11.95
2023-04-18T11:57:42.195Z,12.13
2023-04-18T12:00:12.260Z,14.50
2023-04-18T12:02:42.765Z,16.85
2023-04-18T12:05:11.633Z,15.07
2023-04-18T12:07:40.777Z,13.45
2023-04-18T12:10:09.761Z,20.58
2023-04-18T12:12:37.369Z,7.40
2023-04-18T12:15:08.829Z,8.18
2023-04-18T12:17:37.354Z,10.63
2023-04-18T12:20:10.026Z,9.52
2023-04-18T12:22:38.715Z,8.90
2023-04-18T12:25:20.143Z,10.05
2023-04-18T12:27:51.778Z,7.10
2023-04-18T12:30:21.923Z,16.02
2023-04-18T12:32:51.188Z,8.77
2023-04-18T12:35:20.753Z,16.33
2023-04-18T12:37:48.683Z,8.00
2023-04-18T12:40:18.899Z,14.15
2023-04-18T12:42:47.030Z,46.80
2023-04-18T12:45:15.534Z,13.57
2023-04-18T12:47:44.496Z,19.33
2023-04-18T12:50:12.989Z,21.30
2023-04-18T12:52:42.361Z,15.95
2023-04-18T12:55:10.706Z,28.80
2023-04-18T12:57:38.557Z,18.90
2023-04-18T13:00:10.382Z,13.15
2023-04-18T13:02:39.080Z,16.33
2023-04-18T13:05:07.858Z,10.13
2023-04-18T13:07:37.325Z,12.13
2023-04-18T13:10:07.505Z,13.35
2023-04-18T13:12:35.394Z,10.93
2023-04-18T13:15:03.526Z,9.70
2023-04-18T13:17:31.045Z,15.32
2023-04-18T13:19:58.570Z,13.50
2023-04-18T13:22:26.111Z,12.52
2023-04-18T13:24:53.593Z,10.65
2023-04-18T13:27:22.416Z,15.27
2023-04-18T13:29:49.999Z,11.70
2023-04-18T13:32:17.776Z,12.32
2023-04-18T13:34:47.463Z,11.05
2023-04-18T13:37:15.562Z,12.02
2023-04-18T13:39:43.049Z,14.00
2023-04-18T13:42:10.630Z,12.52
2023-04-18T13:44:39.759Z,12.00
2023-04-18T13:47:08.363Z,11.77
2023-04-18T13:49:36.321Z,13.52
2023-04-18T13:52:04.332Z,9.45
2023-04-18T13:54:33.383Z,12.38
2023-04-18T13:57:03.104Z,13.15
2023-04-18T13:59:32.414Z,23.58
2023-04-18T14:02:01.473Z,10.55
2023-04-18T14:04:29.555Z,14.43
2023-04-18T14:06:57.213Z,13.82
2023-04-18T14:09:24.694Z,15.55
2023-04-18T14:11:52.188Z,11.50
2023-04-18T14:14:19.686Z,14.02
2023-04-18T14:16:47.195Z,13.77
2023-04-18T14:19:16.106Z,17.08
2023-04-18T14:21:43.883Z,14.10
2023-04-18T14:24:11.408Z,10.95
2023-04-18T14:26:38.909Z,13.75
2023-04-18T14:29:06.469Z,10.45
2023-04-18T14:31:34.047Z,14.13
2023-04-18T14:34:01.667Z,10.98
2023-04-18T14:36:30.908Z,12.40
2023-04-18T14:38:59.063Z,12.80
2023-04-18T14:41:26.841Z,18.67
2023-04-18T14:43:54.379Z,11.80
2023-04-18T14:46:22.382Z,14.63
2023-04-18T14:48:49.942Z,15.55
2023-04-18T14:51:17.574Z,15.05
2023-04-18T14:53:46.551Z,12.25
2023-04-18T14:56:15.077Z,16.17
2023-04-18T14:58:43.827Z,16.48
2023-04-18T15:01:11.364Z,11.57
2023-04-18T15:03:39.005Z,13.57
2023-04-18T15:06:07.237Z,13.35
2023-04-18T15:08:34.761Z,11.45
2023-04-18T15:11:06.647Z,13.40
2023-04-18T15:13:34.307Z,10.82
2023-04-18T15:16:01.926Z,14.95
2023-04-18T15:18:29.525Z,13.98
2023-04-18T15:20:57.527Z,16.30
2023-04-18T15:23:25.017Z,13.10
2023-04-18T15:25:52.522Z,13.93
2023-04-18T15:28:21.372Z,16.25
2023-04-18T15:30:48.893Z,20.27
2023-04-18T15:33:17.842Z,11.63
2023-04-18T15:35:45.473Z,13.00
2023-04-18T15:38:12.993Z,13.82
2023-04-18T15:40:40.768Z,18.65
2023-04-18T15:43:08.344Z,13.65
2023-04-18T15:45:37.158Z,15.32
2023-04-18T15:48:04.957Z,15.50
2023-04-18T15:50:33.826Z,14.10
2023-04-18T15:53:01.592Z,11.02
2023-04-18T15:55:29.151Z,16.60
2023-04-18T15:57:56.693Z,10.88
2023-04-18T16:00:24.388Z,13.57
2023-04-18T16:02:53.288Z,14.27
2023-04-18T16:05:20.838Z,11.05
2023-04-18T16:07:48.372Z,13.82
2023-04-18T16:10:15.972Z,14.70
2023-04-18T16:12:43.503Z,12.82
2023-04-18T16:15:11.806Z,12.57
2023-04-18T16:17:39.585Z,11.93
2023-04-18T16:20:09.462Z,15.30
2023-04-18T16:22:37.380Z,12.30
2023-04-18T16:25:05.439Z,11.85
2023-04-18T16:27:33.256Z,12.43
2023-04-18T16:30:01.094Z,13.07
2023-04-18T16:32:28.683Z,14.82
2023-04-18T16:34:56.216Z,14.27
2023-04-18T16:37:25.044Z,13.48
2023-04-18T16:39:52.566Z,13.32
2023-04-18T16:42:20.029Z,12.85
2023-04-18T16:44:48.325Z,10.93
2023-04-18T16:47:15.996Z,14.27
2023-04-18T16:49:46.517Z,13.32
2023-04-18T16:52:14.160Z,38.72
2023-04-18T16:54:43.025Z,12.02
2023-04-18T16:57:10.732Z,14.38
2023-04-18T16:59:38.266Z,13.52
2023-04-18T17:02:06.762Z,17.58
2023-04-18T17:04:34.579Z,24.05
2023-04-18T17:07:02.097Z,28.77
2023-04-18T17:09:29.616Z,22.70
2023-04-18T17:11:58.961Z,33.70
2023-04-18T17:14:26.504Z,100.50
2023-04-18T17:16:54.206Z,31.48
2023-04-18T17:19:21.821Z,19.73
2023-04-18T17:21:50.936Z,33.25
2023-04-18T17:24:18.759Z,24.10
2023-04-18T17:26:46.271Z,38.58
2023-04-18T17:29:15.556Z,40.20
2023-04-18T17:31:43.304Z,52.28
2023-04-18T17:34:10.861Z,17.40
2023-04-18T17:36:38.394Z,29.55
2023-04-18T17:39:06.598Z,90.60
2023-04-18T17:41:36.520Z,18.42
2023-04-18T17:44:04.260Z,25.08
2023-04-18T17:46:33.275Z,32.45
2023-04-18T17:49:00.844Z,36.13
2023-04-18T17:51:28.339Z,20.40
2023-04-18T17:53:56.017Z,16.17
2023-04-18T17:56:23.859Z,49.92
2023-04-18T17:58:51.432Z,15.57
2023-04-18T18:01:19.821Z,17.85
2023-04-18T18:03:49.295Z,15.15
2023-04-18T18:06:16.991Z,23.77
2023-04-18T18:08:44.589Z,15.00
2023-04-18T18:11:12.132Z,18.08
2023-04-18T18:13:39.890Z,22.25
2023-04-18T18:16:08.728Z,27.67
2023-04-18T18:18:36.821Z,36.45
2023-04-18T18:21:05.753Z,26.90
2023-04-18T18:23:33.289Z,18.55
2023-04-18T18:26:01.240Z,15.05
2023-04-18T18:28:28.836Z,23.38
2023-04-18T18:30:56.367Z,26.17
2023-04-18T18:33:24.045Z,11.25
2023-04-18T18:35:51.706Z,12.95
2023-04-18T18:38:20.575Z,8.80
2023-04-18T18:40:48.137Z,9.90
2023-04-18T18:43:15.661Z,11.52
2023-04-18T18:45:43.213Z,7.97
2023-04-18T18:48:11.543Z,6.70
2023-04-18T18:50:39.064Z,8.45
2023-04-18T18:53:06.778Z,5.20
2023-04-18T18:55:35.552Z,6.15
2023-04-18T18:58:03.155Z,9.27
2023-04-18T19:00:30.632Z,10.80
2023-04-18T19:02:58.246Z,11.70
2023-04-18T19:05:26.012Z,6.85
2023-04-18T19:07:53.942Z,4.80
2023-04-18T19:10:21.733Z,7.05
2023-04-18T19:12:50.556Z,7.60
2023-04-18T19:15:18.111Z,5.28
2023-04-18T19:17:45.718Z,7.38
2023-04-18T19:20:13.297Z,5.60
2023-04-18T19:22:40.783Z,7.57
2023-04-18T19:25:09.764Z,7.55
2023-04-18T19:27:37.251Z,9.13
2023-04-18T19:30:07.416Z,12.20
2023-04-18T19:32:34.955Z,6.50
2023-04-18T19:35:02.466Z,5.85
2023-04-18T19:37:29.970Z,5.03
2023-04-18T19:39:57.462Z,5.18
2023-04-18T19:42:25.023Z,5.72
2023-04-18T19:44:52.529Z,7.28
2023-04-18T19:47:21.388Z,6.80
2023-04-18T19:49:48.908Z,15.05
2023-04-18T19:52:16.578Z,4.68
2023-04-18T19:54:44.066Z,5.65
2023-04-18T19:57:11.696Z,5.32
2023-04-18T19:59:39.315Z,7.10
2023-04-18T20:02:07.202Z,7.55
2023-04-18T20:04:36.444Z,6.93
2023-04-18T20:07:04.269Z,7.85
2023-04-18T20:09:31.785Z,10.23
2023-04-18T20:12:00.445Z,6.85
2023-04-18T20:14:28.434Z,10.93
2023-04-18T20:16:56.074Z,5.40
2023-04-18T20:19:25.608Z,5.78
2023-04-18T20:21:54.461Z,5.15
2023-04-18T20:24:21.988Z,5.47
2023-04-18T20:26:49.491Z,5.20
2023-04-18T20:29:17.071Z,4.70
2023-04-18T20:31:44.565Z,5.70
2023-04-18T20:34:12.215Z,4.35
2023-04-18T20:36:41.565Z,4.40
2023-04-18T20:39:10.458Z,8.13
2023-04-18T20:41:38.478Z,7.10
2023-04-18T20:44:06.726Z,4.80
2023-04-18T20:46:34.383Z,4.10
2023-04-18T20:49:02.067Z,7.15
2023-04-18T20:51:29.866Z,5.95
2023-04-18T20:53:57.359Z,5.93
2023-04-18T20:56:26.195Z,4.60
2023-04-18T20:58:53.662Z,4.72
2023-04-18T21:01:21.590Z,6.20
2023-04-18T21:03:49.260Z,5.50
2023-04-18T21:06:19.068Z,6.43
2023-04-18T21:08:46.545Z,6.07
2023-04-18T21:11:14.289Z,7.20
2023-04-18T21:13:43.070Z,5.70
2023-04-18T21:16:11.153Z,6.85
2023-04-18T21:18:38.704Z,7.22
2023-04-18T21:21:07.131Z,7.88
2023-04-18T21:23:34.606Z,6.40
2023-04-18T21:26:02.153Z,10.38
2023-04-18T21:28:29.652Z,6.20
2023-04-18T21:30:58.439Z,9.25
2023-04-18T21:33:26.197Z,5.95
2023-04-18T21:35:53.701Z,6.40
2023-04-18T21:38:25.216Z,6.93
2023-04-18T21:40:52.689Z,6.43
2023-04-18T21:43:21.388Z,6.00
2023-04-18T21:45:48.937Z,4.97
2023-04-18T21:48:17.792Z,5.90
2023-04-18T21:50:45.384Z,9.88
2023-04-18T21:53:12.853Z,8.32
2023-04-18T21:55:40.375Z,6.15
2023-04-18T21:58:08.037Z,5.75
2023-04-18T22:00:35.534Z,7.30
2023-04-18T22:03:03.150Z,6.15
2023-04-18T22:05:33.288Z,7.72
2023-04-18T22:08:00.794Z,7.28
2023-04-18T22:10:28.281Z,5.57
2023-04-18T22:12:55.986Z,6.43
2023-04-18T22:15:23.779Z,6.05
2023-04-18T22:17:51.298Z,6.32
2023-04-18T22:20:18.871Z,5.40
2023-04-18T22:22:47.652Z,7.93
2023-04-18T22:25:15.264Z,6.45
2023-04-18T22:27:43.084Z,8.90
2023-04-18T22:30:11.470Z,6.60
2023-04-18T22:32:39.012Z,9.32
2023-04-18T22:35:07.619Z,6.53
2023-04-18T22:37:35.099Z,8.30
2023-04-18T22:40:05.254Z,6.95
2023-04-18T22:42:33.736Z,7.47
2023-04-18T22:45:01.498Z,5.90
2023-04-18T22:47:29.033Z,7.82
2023-04-18T22:49:56.574Z,6.90
2023-04-18T22:52:25.023Z,6.88
2023-04-18T22:54:52.574Z,9.18
2023-04-18T22:57:21.713Z,7.00
2023-04-18T22:59:49.205Z,9.00
2023-04-18T23:02:16.848Z,8.93
2023-04-18T23:04:46.223Z,6.68
2023-04-18T23:07:13.981Z,8.23
2023-04-18T23:09:41.476Z,7.03
2023-04-18T23:12:09.032Z,6.72
2023-04-18T23:14:38.876Z,11.30
2023-04-18T23:17:06.376Z,6.03
2023-04-18T23:19:33.858Z,7.80
2023-04-18T23:22:01.372Z,8.35
2023-04-18T23:24:28.869Z,8.82
2023-04-18T23:26:57.006Z,8.82
2023-04-18T23:29:24.591Z,11.77
2023-04-18T23:31:53.459Z,7.55
2023-04-18T23:34:21.111Z,6.22
2023-04-18T23:36:48.565Z,5.32
2023-04-18T23:39:18.409Z,7.45
2023-04-18T23:41:46.031Z,5.32
2023-04-18T23:44:13.828Z,9.05
2023-04-18T23:46:41.726Z,6.00
2023-04-18T23:49:10.630Z,6.55
2023-04-18T23:51:38.579Z,5.60
2023-04-18T23:54:06.422Z,9.82
2023-04-18T23:56:34.538Z,5.35
2023-04-18T23:59:02.055Z,5.68
